Time,TemperatureF,DewpointF,PressureIn,WindDirection,WindDirectionDegrees,WindSpeedMPH,WindSpeedGustMPH,Humidity,HourlyPrecipIn,Conditions,Clouds,dailyrainin,SoftwareType,DateUTC
2013-07-08 00:01:00,76.0,70.0,29.78,West,271,1.0,8.0,81,0.04,,,0.04,,2013-07-08 05:01:00,
2013-07-08 00:11:00,75.0,71.0,29.73,NE,34,4.0,13.0,87,0.12,,,0.12,,2013-07-08 05:11:00,
2013-07-08 00:22:00,72.0,68.0,29.80,NNE,22,5.0,14.0,88,0.13,,,0.13,,2013-07-08 05:22:00,
2013-07-08 00:33:00,72.0,68.0,29.80,NNE,22,5.0,14.0,88,0.13,,,0.13,,2013-07-08 05:33:00,
2013-07-08 00:43:00,71.0,68.0,29.82,NE,40,2.0,5.0,89,0.14,,,0.14,,2013-07-08 05:43:00,
2013-07-08 00:53:00,71.0,68.0,29.81,SE,124,0.0,3.0,90,0.09,,,0.14,,2013-07-08 05:53:00,
2013-07-08 01:01:00,71.0,68.0,29.81,SE,124,0.0,3.0,90,0.09,,,0.14,,2013-07-08 06:01:00,
2013-07-08 01:11:00,71.0,68.0,29.82,SW,220,0.0,5.0,90,0.02,,,0.14,,2013-07-08 06:11:00,
2013-07-08 01:22:00,71.0,68.0,29.81,SSW,193,5.0,10.0,90,0.01,,,0.14,,2013-07-08 06:22:00,
2013-07-08 01:33:00,71.0,68.0,29.81,SSW,193,5.0,10.0,90,0.01,,,0.14,,2013-07-08 06:33:00,
2013-07-08 01:43:00,70.0,67.0,29.82,SSW,213,0.0,4.0,91,0.02,,,0.16,,2013-07-08 06:43:00,
2013-07-08 01:53:00,70.0,67.0,29.80,SW,221,5.0,8.0,91,0.04,,,0.18,,2013-07-08 06:53:00,
2013-07-08 02:02:00,70.0,67.0,29.80,SW,221,5.0,8.0,91,0.04,,,0.18,,2013-07-08 07:02:00,
2013-07-08 02:12:00,71.0,68.0,29.80,WSW,251,7.0,9.0,90,0.05,,,0.19,,2013-07-08 07:12:00,
2013-07-08 02:22:00,70.0,67.0,29.79,SW,225,8.0,14.0,89,0.05,,,0.19,,2013-07-08 07:22:00,
2013-07-08 02:34:00,70.0,67.0,29.79,SW,225,8.0,14.0,89,0.05,,,0.19,,2013-07-08 07:34:00,
2013-07-08 02:44:00,70.0,66.0,29.77,WSW,252,4.0,9.0,88,0.04,,,0.20,,2013-07-08 07:44:00,
2013-07-08 02:52:00,69.0,65.0,29.73,SW,236,2.0,7.0,88,0.02,,,0.20,,2013-07-08 07:52:00,
2013-07-08 03:02:00,69.0,65.0,29.73,SW,236,2.0,7.0,88,0.02,,,0.20,,2013-07-08 08:02:00,
2013-07-08 03:12:00,69.0,66.0,29.72,NW,304,1.0,4.0,89,0.01,,,0.20,,2013-07-08 08:12:00,
2013-07-08 03:22:00,69.0,65.0,29.73,ENE,68,2.0,8.0,88,0.00,,,0.20,,2013-07-08 08:22:00,
2013-07-08 03:33:00,69.0,65.0,29.73,ENE,68,2.0,8.0,88,0.00,,,0.20,,2013-07-08 08:33:00,
2013-07-08 03:42:00,69.0,66.0,29.74,NE,55,4.0,7.0,89,0.00,,,0.20,,2013-07-08 08:42:00,
2013-07-08 03:52:00,70.0,66.0,29.75,WSW,252,0.0,4.0,88,0.00,,,0.20,,2013-07-08 08:52:00,
2013-07-08 04:01:00,70.0,66.0,29.75,WSW,252,0.0,4.0,88,0.00,,,0.20,,2013-07-08 09:01:00,
2013-07-08 04:11:00,70.0,67.0,29.75,WSW,252,0.0,2.0,89,0.00,,,0.20,,2013-07-08 09:11:00,
2013-07-08 04:22:00,70.0,67.0,29.75,SE,134,1.0,4.0,89,0.00,,,0.20,,2013-07-08 09:22:00,
2013-07-08 04:34:00,70.0,67.0,29.75,SE,134,1.0,4.0,89,0.00,,,0.20,,2013-07-08 09:34:00,
2013-07-08 04:43:00,70.0,67.0,29.75,SE,134,1.0,4.0,89,0.00,,,0.20,,2013-07-08 09:43:00,
2013-07-08 04:52:00,70.0,67.0,29.76,SSE,163,0.0,3.0,89,0.00,,,0.20,,2013-07-08 09:52:00,
2013-07-08 05:02:00,70.0,67.0,29.76,SSE,163,0.0,3.0,89,0.00,,,0.20,,2013-07-08 10:02:00,
2013-07-08 05:11:00,70.0,67.0,29.77,SE,128,2.0,4.0,89,0.00,,,0.20,,2013-07-08 10:11:00,
2013-07-08 05:22:00,70.0,67.0,29.77,SE,128,2.0,4.0,89,0.00,,,0.20,,2013-07-08 10:22:00,
2013-07-08 05:34:00,70.0,67.0,29.77,SE,128,2.0,4.0,89,0.00,,,0.20,,2013-07-08 10:34:00,
2013-07-08 05:43:00,70.0,67.0,29.77,SE,128,2.0,4.0,89,0.00,,,0.20,,2013-07-08 10:43:00,
2013-07-08 05:53:00,69.0,66.0,29.77,SE,126,0.0,2.0,91,0.00,,,0.20,,2013-07-08 10:53:00,
2013-07-08 06:02:00,69.0,66.0,29.77,SE,126,0.0,2.0,91,0.00,,,0.20,,2013-07-08 11:02:00,
2013-07-08 06:11:00,69.0,66.0,29.78,SE,126,0.0,2.0,91,0.00,,,0.20,,2013-07-08 11:11:00,
2013-07-08 06:22:00,69.0,66.0,29.78,SE,126,0.0,1.0,91,0.00,,,0.20,,2013-07-08 11:22:00,
2013-07-08 06:33:00,69.0,66.0,29.78,SE,126,0.0,1.0,91,0.00,,,0.20,,2013-07-08 11:33:00,
2013-07-08 06:43:00,69.0,66.0,29.78,SE,126,0.0,1.0,91,0.00,,,0.20,,2013-07-08 11:43:00,
2013-07-08 06:52:00,69.0,67.0,29.79,SE,126,0.0,1.0,92,0.00,,,0.20,,2013-07-08 11:52:00,
2013-07-08 07:01:00,69.0,67.0,29.79,SE,126,0.0,1.0,92,0.00,,,0.20,,2013-07-08 12:01:00,
2013-07-08 07:11:00,69.0,67.0,29.79,SE,126,0.0,1.0,92,0.00,,,0.20,,2013-07-08 12:11:00,
2013-07-08 07:22:00,69.0,67.0,29.79,SE,126,0.0,3.0,93,0.00,,,0.20,,2013-07-08 12:22:00,
2013-07-08 07:34:00,69.0,67.0,29.79,SE,126,0.0,3.0,93,0.00,,,0.20,,2013-07-08 12:34:00,
2013-07-08 07:53:00,68.0,66.0,29.80,SE,126,0.0,3.0,94,0.00,,,0.20,,2013-07-08 12:53:00,
2013-07-08 08:01:00,68.0,66.0,29.80,SE,126,0.0,3.0,94,0.00,,,0.20,,2013-07-08 13:01:00,
2013-07-08 08:11:00,69.0,68.0,29.80,NNE,22,1.0,4.0,95,0.00,,,0.20,,2013-07-08 13:11:00,
2013-07-08 08:22:00,70.0,68.0,29.79,NNE,17,1.0,5.0,93,0.00,,,0.20,,2013-07-08 13:22:00,
2013-07-08 08:33:00,70.0,68.0,29.79,NNE,17,1.0,5.0,93,0.00,,,0.20,,2013-07-08 13:33:00,
2013-07-08 08:42:00,71.0,69.0,29.79,NNE,13,0.0,2.0,92,0.00,,,0.20,,2013-07-08 13:42:00,
2013-07-08 08:53:00,72.0,69.0,29.79,NW,325,1.0,4.0,90,0.00,,,0.20,,2013-07-08 13:53:00,
2013-07-08 09:02:00,72.0,69.0,29.79,NW,325,1.0,4.0,90,0.00,,,0.20,,2013-07-08 14:02:00,
2013-07-08 09:12:00,72.0,69.0,29.79,NW,320,0.0,2.0,90,0.00,,,0.20,,2013-07-08 14:12:00,
2013-07-08 09:22:00,74.0,70.0,29.79,NW,320,0.0,2.0,88,0.00,,,0.20,,2013-07-08 14:22:00,
2013-07-08 09:34:00,74.0,70.0,29.79,NW,320,0.0,2.0,88,0.00,,,0.20,,2013-07-08 14:34:00,
2013-07-08 09:43:00,75.0,70.0,29.79,NW,320,0.0,1.0,85,0.00,,,0.20,,2013-07-08 14:43:00,
2013-07-08 09:53:00,77.0,70.0,29.78,South,182,0.0,3.0,80,0.00,,,0.20,,2013-07-08 14:53:00,
2013-07-08 10:02:00,77.0,70.0,29.78,South,182,0.0,3.0,80,0.00,,,0.20,,2013-07-08 15:02:00,
2013-07-08 10:11:00,80.0,71.0,29.79,SE,135,0.0,3.0,75,0.00,,,0.20,,2013-07-08 15:11:00,
2013-07-08 10:22:00,81.0,71.0,29.79,SSE,155,1.0,3.0,72,0.00,,,0.20,,2013-07-08 15:22:00,
2013-07-08 10:33:00,81.0,71.0,29.79,SSE,155,1.0,3.0,72,0.00,,,0.20,,2013-07-08 15:33:00,
2013-07-08 10:43:00,82.0,72.0,29.79,SE,128,0.0,3.0,71,0.00,,,0.20,,2013-07-08 15:43:00,
2013-07-08 10:53:00,82.0,72.0,29.79,SE,128,0.0,3.0,71,0.00,,,0.20,,2013-07-08 15:53:00,
2013-07-08 11:01:00,82.0,72.0,29.78,ENE,66,3.0,6.0,71,0.00,,,0.20,,2013-07-08 16:01:00,
2013-07-08 11:11:00,82.0,72.0,29.78,SE,134,1.0,5.0,71,0.00,,,0.20,,2013-07-08 16:11:00,
2013-07-08 11:22:00,82.0,72.0,29.78,NE,44,1.0,5.0,71,0.00,,,0.20,,2013-07-08 16:22:00,
2013-07-08 11:33:00,82.0,72.0,29.78,NE,44,1.0,5.0,71,0.00,,,0.20,,2013-07-08 16:33:00,
2013-07-08 11:43:00,83.0,71.0,29.78,East,79,3.0,7.0,68,0.00,,,0.20,,2013-07-08 16:43:00,
2013-07-08 11:53:00,83.0,71.0,29.78,East,79,3.0,7.0,68,0.00,,,0.20,,2013-07-08 16:53:00,
2013-07-08 12:06:00,83.0,71.0,29.78,East,79,3.0,7.0,68,0.00,,,0.20,,2013-07-08 17:06:00,
2013-07-08 12:13:00,85.0,70.0,29.78,SSE,152,2.0,7.0,62,0.00,,,0.20,,2013-07-08 17:13:00,
2013-07-08 12:25:00,85.0,70.0,29.78,SSE,152,2.0,7.0,62,0.00,,,0.20,,2013-07-08 17:25:00,
2013-07-08 12:37:00,86.0,69.0,29.78,SE,132,3.0,7.0,57,0.00,,,0.20,,2013-07-08 17:37:00,
2013-07-08 12:45:00,86.0,69.0,29.77,SE,135,2.0,8.0,57,0.00,,,0.20,,2013-07-08 17:45:00,
2013-07-08 12:54:00,86.0,68.0,29.77,NNE,32,2.0,8.0,56,0.00,,,0.20,,2013-07-08 17:54:00,
2013-07-08 13:05:00,86.0,68.0,29.77,NNE,32,2.0,8.0,56,0.00,,,0.20,,2013-07-08 18:05:00,
2013-07-08 13:18:00,87.0,69.0,29.77,SSE,150,2.0,5.0,55,0.00,,,0.20,,2013-07-08 18:18:00,
2013-07-08 13:29:00,88.0,70.0,29.77,SE,141,3.0,7.0,55,0.00,,,0.20,,2013-07-08 18:29:00,
2013-07-08 13:48:00,88.0,68.0,29.77,SSE,160,3.0,9.0,52,0.00,,,0.20,,2013-07-08 18:48:00,
2013-07-08 13:55:00,89.0,68.0,29.76,SE,125,3.0,8.0,51,0.00,,,0.20,,2013-07-08 18:55:00,
2013-07-08 14:09:00,89.0,68.0,29.76,SE,125,3.0,8.0,51,0.00,,,0.20,,2013-07-08 19:09:00,
2013-07-08 14:18:00,90.0,69.0,29.76,SSE,159,2.0,6.0,50,0.00,,,0.20,,2013-07-08 19:18:00,
2013-07-08 14:27:00,90.0,69.0,29.76,SSE,153,1.0,7.0,51,0.00,,,0.20,,2013-07-08 19:27:00,
2013-07-08 14:36:00,90.0,69.0,29.76,SSE,153,1.0,7.0,51,0.00,,,0.20,,2013-07-08 19:36:00,
2013-07-08 14:48:00,91.0,67.0,29.76,East,97,3.0,10.0,45,0.00,,,0.20,,2013-07-08 19:48:00,
2013-07-08 14:55:00,91.0,69.0,29.75,ESE,112,1.0,6.0,48,0.00,,,0.20,,2013-07-08 19:55:00,
2013-07-08 15:09:00,91.0,69.0,29.75,ESE,112,1.0,6.0,48,0.00,,,0.20,,2013-07-08 20:09:00,
2013-07-08 15:18:00,92.0,69.0,29.75,SE,137,3.0,7.0,47,0.00,,,0.20,,2013-07-08 20:18:00,
2013-07-08 15:26:00,92.0,70.0,29.75,NNE,32,1.0,8.0,49,0.00,,,0.20,,2013-07-08 20:26:00,
2013-07-08 16:09:00,92.0,69.0,29.75,ENE,75,2.0,7.0,47,0.00,,,0.20,,2013-07-08 21:09:00,
2013-07-08 16:18:00,91.0,70.0,29.74,East,79,1.0,8.0,50,0.00,,,0.20,,2013-07-08 21:18:00,
2013-07-08 16:28:00,92.0,69.0,29.73,ESE,121,3.0,9.0,48,0.00,,,0.20,,2013-07-08 21:28:00,
2013-07-08 16:39:00,92.0,69.0,29.73,ESE,121,3.0,9.0,48,0.00,,,0.20,,2013-07-08 21:39:00,
2013-07-08 16:48:00,92.0,68.0,29.73,NNE,15,2.0,7.0,46,0.00,,,0.20,,2013-07-08 21:48:00,
2013-07-08 16:58:00,92.0,67.0,29.72,SE,132,4.0,10.0,44,0.00,,,0.20,,2013-07-08 21:58:00,
2013-07-08 17:27:00,93.0,68.0,29.72,SE,134,3.0,8.0,44,0.00,,,0.20,,2013-07-08 22:27:00,
2013-07-08 17:39:00,93.0,68.0,29.72,SE,134,3.0,8.0,44,0.00,,,0.20,,2013-07-08 22:39:00,
2013-07-08 17:56:00,93.0,68.0,29.71,SE,140,3.0,9.0,45,0.00,,,0.20,,2013-07-08 22:56:00,
2013-07-08 18:28:00,93.0,68.0,29.69,ESE,120,3.0,8.0,44,0.00,,,0.20,,2013-07-08 23:28:00,
2013-07-08 18:57:00,92.0,69.0,29.67,SE,140,2.0,9.0,47,0.00,,,0.20,,2013-07-08 23:57:00,
2013-07-08 19:10:00,92.0,69.0,29.67,SE,140,2.0,9.0,47,0.00,,,0.20,,2013-07-09 00:10:00,
2013-07-08 19:19:00,93.0,70.0,29.67,SE,136,2.0,8.0,47,0.00,,,0.20,,2013-07-09 00:19:00,
2013-07-08 19:28:00,92.0,69.0,29.67,SE,126,0.0,6.0,48,0.00,,,0.20,,2013-07-09 00:28:00,
2013-07-08 19:50:00,92.0,70.0,29.67,SSE,153,2.0,5.0,49,0.00,,,0.20,,2013-07-09 00:50:00,
2013-07-08 20:09:00,90.0,69.0,29.66,SE,142,3.0,7.0,51,0.00,,,0.20,,2013-07-09 01:09:00,
2013-07-08 20:18:00,89.0,69.0,29.67,SE,138,1.0,6.0,52,0.00,,,0.20,,2013-07-09 01:18:00,
2013-07-08 20:38:00,89.0,70.0,29.67,SE,132,1.0,3.0,54,0.00,,,0.20,,2013-07-09 01:38:00,
2013-07-08 20:57:00,88.0,70.0,29.68,ESE,118,0.0,3.0,56,0.00,,,0.20,,2013-07-09 01:57:00,
2013-07-08 21:21:00,-999.0,-99.9,29.68,SE,126,0.0,3.0,57,0.00,,,0.20,,2013-07-09 02:21:00,
2013-07-08 21:27:00,87.0,70.0,29.68,SE,126,0.0,3.0,57,0.00,,,0.20,,2013-07-09 02:27:00,
2013-07-08 21:40:00,86.0,69.0,29.67,SE,128,1.0,4.0,58,0.00,,,0.20,,2013-07-09 02:40:00,
2013-07-08 22:08:00,84.0,69.0,29.67,SE,136,2.0,5.0,60,0.00,,,0.20,,2013-07-09 03:08:00,
2013-07-08 22:30:00,83.0,69.0,29.68,ESE,108,2.0,6.0,63,0.00,,,0.20,,2013-07-09 03:30:00,
2013-07-08 22:39:00,83.0,69.0,29.68,ESE,108,2.0,6.0,63,0.00,,,0.20,,2013-07-09 03:39:00,
2013-07-08 22:50:00,83.0,70.0,29.70,SE,129,0.0,4.0,64,0.00,,,0.20,,2013-07-09 03:50:00,
2013-07-08 23:02:00,82.0,71.0,29.70,SE,135,4.0,7.0,69,0.00,,,0.20,,2013-07-09 04:02:00,
2013-07-08 23:11:00,76.0,66.0,29.73,SE,136,7.0,27.0,72,0.00,,,0.20,,2013-07-09 04:11:00,
2013-07-08 23:22:00,76.0,66.0,29.73,SE,136,7.0,27.0,72,0.00,,,0.20,,2013-07-09 04:22:00,
2013-07-08 23:53:00,74.0,67.0,29.70,SSE,150,1.0,8.0,80,0.00,,,0.20,,2013-07-09 04:53:00,